KDSV/DSV METAR and TAF weather

Enter ICAO airport designator
Station Type Date Time Source
KDSV METAR 2020/09/18 22:54 UTC NOAA

KDSV 182254Z AUTO 35006KT 10SM FEW060 12/M01 A3024 RMK AO2 SLP251 T01171006


Station Type Date Time Source
KDSV Decoded METAR 2020/09/18 22:54 UTC NOAA

DANSVILLE MUNICIPAL AIRPORT, NY, United States (KDSV) 42-34N 077-43W 198M
Sep 18, 2020 - 06:54 PM EDT / 2020.09.18 2254 UTC
Wind: from the N (350 degrees) at 7 MPH (6 KT):0
Visibility: 10 mile(s):0
Sky conditions: mostly clear
Temperature: 53.1 F (11.7 C)
Dew Point: 30.9 F (-0.6 C)
Relative Humidity: 42%
Pressure (altimeter): 30.24 in. Hg (1024 hPa)
ob: KDSV 182254Z AUTO 35006KT 10SM FEW060 12/M01 A3024 RMK AO2 SLP251 T01171006
cycle: 23

Station Type Date Time Source
KDSV TAF UTC NOAA

Error!

Example: see airport list